Time;durP1;ratioP1;P1;durP2;ratioP2;P2;SDS_P1;SDS_P2;PMS_P1;PMS_P2;Temp;Humidity;BMP_temperature;BMP_pressure;BME280_temperature;BME280_humidity;BME280_pressure;Samples;Min_cycle;Max_cycle;Signal;HPM_P1;HPM_P2
2022/01/03 00:01:05;;;;;;;3.50;0.70;;;;;;;9.32;100.00;45687.09;5019792;28;20037;-70
2022/01/03 00:03:31;;;;;;;0.87;0.50;;;;;;;9.20;100.00;41736.31;5036889;28;20127;-70
2022/01/03 00:05:57;;;;;;;3.50;0.80;;;;;;;9.11;100.00;41401.38;5059048;28;20040;-70
2022/01/03 00:08:23;;;;;;;3.03;1.23;;;;;;;9.14;100.00;22748.41;5057484;28;20253;-70
2022/01/03 00:10:50;;;;;;;1.73;0.70;;;;;;;9.06;100.00;8093.00;5054843;28;20029;-70
2022/01/03 00:13:17;;;;;;;0.80;0.50;;;;;;;9.02;100.00;-667.31;5055229;28;20040;-70
2022/01/03 00:15:43;;;;;;;0.70;0.47;;;;;;;9.01;100.00;-11018.66;5049798;28;20020;-70
2022/01/03 00:18:08;;;;;;;0.67;0.50;;;;;;;8.98;100.00;-19401.00;5052041;28;20520;-70
2022/01/03 00:20:34;;;;;;;1.87;0.50;;;;;;;8.93;100.00;-19399.69;5051421;28;20068;-70
2022/01/03 00:23:05;;;;;;;2.60;0.50;;;;;;;8.92;100.00;-19399.56;5056706;28;20277;-70
2022/01/03 00:25:37;;;;;;;1.13;0.50;;;;;;;8.91;100.00;-19399.16;5056926;28;20043;-70
2022/01/03 00:28:24;;;;;;;1.00;0.50;;;;;;;8.85;100.00;-19397.72;5047776;28;20056;-70
2022/01/03 00:30:53;;;;;;;1.03;0.63;;;;;;;8.87;100.00;-19398.25;5049180;28;20096;-70
2022/01/03 00:33:20;;;;;;;1.80;0.60;;;;;;;8.86;100.00;-19397.84;5058224;28;20029;-70
2022/01/03 00:35:49;;;;;;;4.90;0.67;;;;;;;8.85;100.00;-19397.72;5053466;28;20103;-69
2022/01/03 00:38:14;;;;;;;3.90;0.40;;;;;;;8.76;100.00;-19395.47;5042458;28;20039;-69
2022/01/03 00:40:40;;;;;;;3.10;1.00;;;;;;;8.77;100.00;-19395.59;5053280;28;20381;-68
2022/01/03 00:43:06;;;;;;;0.47;0.40;;;;;;;8.80;100.00;-19396.53;5050393;28;20024;-69
2022/01/03 00:45:32;;;;;;;0.77;0.40;;;;;;;8.80;100.00;-19396.53;5060253;28;20034;-69
2022/01/03 00:47:57;;;;;;;1.90;0.60;;;;;;;8.67;100.00;-19393.09;5061026;28;20039;-68
2022/01/03 00:50:23;;;;;;;1.37;0.73;;;;;;;8.55;100.00;-19389.94;5060977;28;20381;-69
2022/01/03 00:52:51;;;;;;;1.20;0.60;;;;;;;8.51;100.00;-19389.00;5060671;28;20036;-68
2022/01/03 00:55:18;;;;;;;0.60;0.40;;;;;;;8.55;100.00;-19389.94;5060267;28;20050;-68
2022/01/03 00:58:06;;;;;;;6.03;0.70;;;;;;;8.68;100.00;-19393.34;5060372;28;20028;-68
2022/01/03 01:00:36;;;;;;;0.90;0.50;;;;;;;8.64;100.00;-19392.31;4958760;28;20433;-68
2022/01/03 01:03:12;;;;;;;1.50;0.67;;;;;;;8.71;100.00;-19394.16;4958558;28;20468;-69
2022/01/03 01:05:47;;;;;;;0.70;0.50;;;;;;;8.68;100.00;-19393.34;4968737;28;20270;-69
2022/01/03 01:08:17;;;;;;;0.93;0.50;;;;;;;8.63;100.00;-19392.03;4958733;28;20037;-69
2022/01/03 01:10:45;;;;;;;3.67;0.60;;;;;;;8.55;100.00;-17727.84;4958834;28;20027;-69
2022/01/03 01:13:12;;;;;;;4.33;1.17;;;;;;;8.54;100.00;-21.91;4958552;28;20117;-71
2022/01/03 01:15:39;;;;;;;10.33;1.03;;;;;;;8.58;100.00;5163.72;4958843;28;20253;-70
2022/01/03 01:18:05;;;;;;;4.33;1.03;;;;;;;8.66;100.00;4516.06;4958246;28;20440;-70
2022/01/03 01:20:33;;;;;;;8.10;1.10;;;;;;;8.74;100.00;-5199.31;4958393;28;20231;-70
2022/01/03 01:22:58;;;;;;;5.80;1.13;;;;;;;8.71;100.00;-10692.13;4956343;28;20039;-71
2022/01/03 01:28:05;;;;;;;9.97;1.33;;;;;;;8.70;100.00;-18838.56;4962579;28;20543;-69
2022/01/03 01:30:31;;;;;;;3.47;1.10;;;;;;;8.88;100.00;-19398.38;4958185;28;20031;-69
2022/01/03 01:33:06;;;;;;;5.93;1.40;;;;;;;8.91;100.00;-19399.28;4958086;28;20198;-69
2022/01/03 01:35:48;;;;;;;5.20;1.07;;;;;;;8.90;100.00;-19398.91;4958093;28;20026;-69
2022/01/03 01:38:31;;;;;;;7.18;1.30;;;;;;;8.89;100.00;-19398.63;5025950;28;20064;-69
2022/01/03 01:40:59;;;;;;;3.63;1.20;;;;;;;8.92;100.00;-19399.56;5060135;28;20279;-69
2022/01/03 01:43:29;;;;;;;4.87;1.83;;;;;;;8.94;100.00;-19399.94;5059229;28;20193;-69
2022/01/03 01:45:58;;;;;;;11.03;2.20;;;;;;;8.88;100.00;-19398.50;5056567;28;20028;-69
2022/01/03 01:48:24;;;;;;;8.23;1.40;;;;;;;8.83;100.00;-19397.19;5058906;28;20448;-69
2022/01/03 01:50:51;;;;;;;7.30;1.50;;;;;;;8.66;100.00;-19392.81;5059751;28;20596;-69
2022/01/03 01:53:24;;;;;;;8.27;1.30;;;;;;;8.67;100.00;-19393.09;5058634;28;20542;-69
2022/01/03 01:55:53;;;;;;;8.07;1.70;;;;;;;8.63;100.00;-19391.91;5059166;28;20032;-69
2022/01/03 01:58:29;;;;;;;6.63;1.40;;;;;;;8.75;100.00;-19395.19;5058700;28;20039;-69
2022/01/03 02:01:01;;;;;;;3.27;0.97;;;;;;;8.76;100.00;-19395.34;5059468;28;20051;-69
2022/01/03 02:03:45;;;;;;;;;;;;;;;8.85;100.00;-19397.72;5061520;22;20391;-67
2022/01/03 02:06:47;;;;;;;11.60;1.40;;;;;;;8.86;100.00;-19397.84;5034231;28;20152;-67
2022/01/03 02:09:23;;;;;;;10.98;1.92;;;;;;;8.86;100.00;-19397.84;4993153;28;20048;-67
2022/01/03 02:11:54;;;;;;;15.70;1.43;;;;;;;8.91;100.00;-19399.16;4978005;28;20431;-67
2022/01/03 02:14:21;;;;;;;12.87;2.67;;;;;;;8.90;100.00;-19398.91;4995068;28;20033;-67
2022/01/03 02:16:47;;;;;;;9.40;1.40;;;;;;;8.99;100.00;-19401.28;4994433;28;20453;-67
2022/01/03 02:19:14;;;;;;;5.90;1.40;;;;;;;8.98;100.00;-19401.00;4991700;28;20063;-67
2022/01/03 02:21:39;;;;;;;7.20;1.67;;;;;;;8.92;100.00;-19399.41;4980892;28;20030;-67
2022/01/03 02:24:06;;;;;;;5.40;1.43;;;;;;;8.96;100.00;-19400.47;4991479;28;20034;-67
2022/01/03 02:26:32;;;;;;;7.03;1.27;;;;;;;8.93;100.00;-19399.69;4996883;28;20034;-67
2022/01/03 02:28:58;;;;;;;5.20;1.50;;;;;;;8.92;100.00;-19399.41;4992010;28;20045;-67
2022/01/03 02:31:24;;;;;;;7.13;1.17;;;;;;;8.88;100.00;-19398.38;4977248;28;20022;-67
2022/01/03 02:33:50;;;;;;;8.40;1.70;;;;;;;8.86;100.00;-19397.97;4989404;28;20115;-67
2022/01/03 02:36:17;;;;;;;4.73;1.00;;;;;;;9.01;100.00;-19401.78;4996551;28;20022;-67
2022/01/03 02:38:43;;;;;;;12.30;1.30;;;;;;;9.02;100.00;-19402.06;4995381;28;20034;-67
2022/01/03 02:41:09;;;;;;;10.43;1.50;;;;;;;9.03;100.00;-19402.31;4993427;28;20395;-67
2022/01/03 02:43:34;;;;;;;8.53;1.37;;;;;;;9.06;100.00;-19403.13;4987507;28;20034;-67
2022/01/03 02:45:59;;;;;;;13.80;2.53;;;;;;;9.06;100.00;-19403.13;5010368;28;20056;-67
2022/01/03 02:48:26;;;;;;;12.30;1.90;;;;;;;9.12;100.00;-19404.56;5039295;28;20033;-66
2022/01/03 02:50:53;;;;;;;7.67;1.43;;;;;;;9.11;100.00;-19404.44;5038732;28;20043;-67
2022/01/03 02:53:19;;;;;;;8.87;1.40;;;;;;;9.10;100.00;-19404.16;5039182;28;20296;-67
2022/01/03 02:55:44;;;;;;;13.77;3.33;;;;;;;9.23;100.00;-19407.59;5039038;28;20515;-67
2022/01/03 02:58:10;;;;;;;4.73;1.03;;;;;;;9.29;100.00;-19409.19;5038836;28;20025;-66
2022/01/03 03:00:45;;;;;;;6.93;1.53;;;;;;;9.34;100.00;-19410.50;5038779;28;20028;-67
2022/01/03 03:03:12;;;;;;;6.63;1.17;;;;;;;9.30;100.00;-19409.44;5038877;28;20278;-67
2022/01/03 03:05:38;;;;;;;8.60;1.93;;;;;;;9.20;100.00;-19406.81;5018893;28;20253;-67
2022/01/03 03:08:03;;;;;;;7.17;1.57;;;;;;;9.23;100.00;-19407.59;5018957;28;20436;-67
2022/01/03 03:10:29;;;;;;;5.13;1.20;;;;;;;9.26;100.00;-19408.38;5015413;28;20520;-67
2022/01/03 03:12:55;;;;;;;16.03;1.70;;;;;;;9.24;100.00;-19407.72;5018918;28;20452;-67
2022/01/03 03:15:21;;;;;;;6.27;1.60;;;;;;;9.21;100.00;-19407.06;5021560;28;20021;-67
2022/01/03 03:17:48;;;;;;;5.93;1.43;;;;;;;9.20;100.00;-19406.81;5023122;28;20025;-67
2022/01/03 03:20:21;;;;;;;7.40;1.10;;;;;;;9.27;100.00;-19408.66;5022641;28;20036;-67
2022/01/03 03:22:51;;;;;;;7.10;1.90;;;;;;;9.32;100.00;-19409.97;5022951;28;20505;-66
2022/01/03 03:25:21;;;;;;;8.73;1.80;;;;;;;9.31;100.00;-19409.69;5022776;28;20030;-67
2022/01/03 03:27:50;;;;;;;4.43;1.10;;;;;;;9.34;100.00;-19410.50;5022532;28;20056;-67
2022/01/03 03:30:28;;;;;;;7.03;1.30;;;;;;;9.30;100.00;-19409.44;5019223;28;20052;-67
2022/01/03 03:32:56;;;;;;;7.77;1.47;;;;;;;9.30;100.00;-19409.31;5022378;28;20040;-67
2022/01/03 03:35:22;;;;;;;13.47;1.60;;;;;;;9.35;100.00;-19410.63;5022731;28;20489;-67
2022/01/03 03:37:48;;;;;;;10.07;1.30;;;;;;;9.33;100.00;-19410.22;5022671;28;20402;-67
2022/01/03 03:40:14;;;;;;;17.03;2.63;;;;;;;9.32;100.00;-19409.84;5015686;28;20194;-66
2022/01/03 03:42:40;;;;;;;6.73;1.20;;;;;;;9.28;100.00;-19408.91;5022488;28;20037;-67
2022/01/03 03:45:07;;;;;;;8.60;1.30;;;;;;;9.17;100.00;-19406.00;5022856;28;20087;-67
2022/01/03 03:47:33;;;;;;;9.63;1.67;;;;;;;9.14;100.00;-19405.22;5022537;28;20140;-67
2022/01/03 03:49:58;;;;;;;9.57;1.70;;;;;;;9.14;100.00;-19405.09;5022109;28;20108;-67
2022/01/03 03:52:23;;;;;;;5.70;1.50;;;;;;;9.14;100.00;-19405.22;5022431;28;20493;-67
2022/01/03 03:54:49;;;;;;;10.73;1.83;;;;;;;9.15;100.00;-19405.47;5022405;28;20017;-67
2022/01/03 03:57:14;;;;;;;8.57;1.83;;;;;;;9.17;100.00;-19406.00;5017110;28;20103;-67
2022/01/03 03:59:40;;;;;;;5.73;1.33;;;;;;;9.11;100.00;-19404.44;5020553;28;20021;-67
2022/01/03 04:02:06;;;;;;;12.27;1.87;;;;;;;9.07;100.00;-19403.38;5022003;28;20465;-67
2022/01/03 04:04:32;;;;;;;7.70;1.80;;;;;;;9.08;100.00;-19403.63;5021150;28;20056;-67
2022/01/03 04:06:57;;;;;;;8.20;2.13;;;;;;;9.14;100.00;-19405.09;5021687;28;20265;-67
2022/01/03 04:09:23;;;;;;;6.13;1.30;;;;;;;9.15;100.00;-19405.47;5020941;28;20115;-67
2022/01/03 04:11:49;;;;;;;15.20;1.90;;;;;;;9.17;100.00;-19406.00;5021556;28;20107;-67
2022/01/03 04:14:14;;;;;;;12.47;2.00;;;;;;;9.14;100.00;-19405.22;5021334;28;20033;-67
2022/01/03 04:16:40;;;;;;;7.90;1.53;;;;;;;9.14;100.00;-19405.22;5021673;28;20123;-67
2022/01/03 04:19:06;;;;;;;15.17;1.70;;;;;;;9.18;100.00;-19406.28;5020427;28;20042;-67
2022/01/03 04:21:32;;;;;;;8.73;1.60;;;;;;;9.31;100.00;-19409.69;5021648;28;20021;-67
2022/01/03 04:23:57;;;;;;;8.00;1.80;;;;;;;9.29;100.00;-19409.19;5021100;28;20024;-67
2022/01/03 04:26:23;;;;;;;7.93;1.40;;;;;;;9.25;100.00;-19408.13;5020782;28;20292;-67
2022/01/03 04:28:49;;;;;;;7.33;2.00;;;;;;;9.31;100.00;-19409.69;5020635;28;20052;-67
2022/01/03 04:31:15;;;;;;;10.33;1.60;;;;;;;9.25;100.00;-19408.13;5016880;28;20091;-67
2022/01/03 04:33:40;;;;;;;8.87;2.67;;;;;;;9.34;100.00;-19410.50;5020627;28;20060;-67
2022/01/03 04:36:07;;;;;;;8.77;1.30;;;;;;;9.34;100.00;-19410.38;5021371;28;20032;-67
2022/01/03 04:38:33;;;;;;;11.17;2.43;;;;;;;9.37;100.00;-19411.16;5020690;28;20033;-67
2022/01/03 04:41:02;;;;;;;11.00;1.97;;;;;;;9.38;100.00;-19411.41;5020491;28;20323;-67
2022/01/03 04:43:27;;;;;;;9.23;2.50;;;;;;;9.38;100.00;-19411.53;5020719;28;20271;-67
2022/01/03 04:45:54;;;;;;;7.27;1.83;;;;;;;9.37;100.00;-19411.28;5020953;28;20482;-67
2022/01/03 04:48:21;;;;;;;6.43;1.17;;;;;;;9.38;100.00;-19411.53;5015568;28;20486;-67
2022/01/03 04:50:46;;;;;;;12.13;2.20;;;;;;;9.35;100.00;-19410.75;5009827;28;20040;-67
2022/01/03 04:53:11;;;;;;;19.07;2.80;;;;;;;9.30;100.00;-19409.44;5020694;28;20066;-67
2022/01/03 04:55:37;;;;;;;5.90;1.30;;;;;;;9.35;100.00;-19410.75;5020837;28;20068;-67
2022/01/03 04:58:02;;;;;;;11.27;1.40;;;;;;;9.34;100.00;-19410.50;5020701;28;20118;-67
2022/01/03 05:00:28;;;;;;;7.23;1.57;;;;;;;9.30;100.00;-19409.31;5015859;28;20120;-67
2022/01/03 05:02:53;;;;;;;7.57;1.73;;;;;;;9.35;100.00;-19410.75;5020453;28;20114;-67
2022/01/03 05:05:19;;;;;;;11.50;1.23;;;;;;;9.36;100.00;-19411.03;5020266;28;20363;-67
2022/01/03 05:07:46;;;;;;;9.23;1.40;;;;;;;9.31;100.00;-19409.69;5020303;28;20412;-67
2022/01/03 05:10:11;;;;;;;12.73;2.03;;;;;;;9.31;100.00;-19409.56;5019808;28;20541;-67
2022/01/03 05:12:36;;;;;;;7.50;2.23;;;;;;;9.20;100.00;-19406.81;5018769;28;20064;-67
2022/01/03 05:15:02;;;;;;;6.47;1.33;;;;;;;9.01;100.00;-19401.94;5017079;28;20035;-68
2022/01/03 05:17:29;;;;;;;8.30;2.17;;;;;;;8.93;100.00;-19399.69;5014575;28;20029;-67
2022/01/03 05:19:55;;;;;;;8.67;1.80;;;;;;;8.85;100.00;-19397.56;5019007;28;20025;-68
2022/01/03 05:22:20;;;;;;;16.87;2.00;;;;;;;8.78;100.00;-19396.00;5019662;28;20029;-68
2022/01/03 05:24:46;;;;;;;8.90;1.77;;;;;;;8.90;100.00;-19398.91;5018514;28;20254;-67
2022/01/03 05:27:12;;;;;;;11.07;2.07;;;;;;;8.93;100.00;-19399.69;5015901;28;20458;-67
2022/01/03 05:29:37;;;;;;;15.57;2.20;;;;;;;8.85;100.00;-19397.56;5018297;28;20077;-68
2022/01/03 05:32:03;;;;;;;11.73;1.63;;;;;;;8.93;100.00;-19399.69;5019999;28;20103;-67
2022/01/03 05:34:28;;;;;;;10.57;2.10;;;;;;;9.00;100.00;-19401.53;5017541;28;20095;-67
2022/01/03 05:36:54;;;;;;;8.43;2.27;;;;;;;8.93;100.00;-19399.69;5019443;28;20092;-67
2022/01/03 05:39:19;;;;;;;10.23;1.73;;;;;;;8.99;100.00;-19401.28;5018823;28;20482;-67
2022/01/03 05:41:45;;;;;;;11.50;2.10;;;;;;;9.01;100.00;-19401.78;5020009;28;20113;-67
2022/01/03 05:44:10;;;;;;;7.93;1.87;;;;;;;9.12;100.00;-19404.69;5017299;28;20099;-67
2022/01/03 05:46:36;;;;;;;9.73;2.27;;;;;;;9.06;100.00;-19403.25;5018561;28;20029;-68
2022/01/03 05:49:02;;;;;;;12.27;2.27;;;;;;;9.08;100.00;-19403.63;5019179;28;20155;-67
2022/01/03 05:51:28;;;;;;;11.47;2.13;;;;;;;9.13;100.00;-19404.97;5016804;28;20254;-67
2022/01/03 05:53:53;;;;;;;17.00;2.87;;;;;;;9.08;100.00;-19403.63;5013018;28;20025;-67
2022/01/03 05:56:19;;;;;;;10.23;1.80;;;;;;;9.03;100.00;-19402.31;5015410;28;20105;-67
2022/01/03 05:58:45;;;;;;;11.57;2.47;;;;;;;9.07;100.00;-19403.38;5017942;28;20059;-67
2022/01/03 06:01:11;;;;;;;12.87;1.40;;;;;;;9.10;100.00;-19404.16;5018471;28;20286;-67
2022/01/03 06:03:39;;;;;;;20.60;2.80;;;;;;;9.02;100.00;-19402.06;5012659;28;20148;-67
2022/01/03 06:06:18;;;;;;;9.00;1.80;;;;;;;9.00;100.00;-19401.53;5012463;28;20029;-67
2022/01/03 06:08:43;;;;;;;11.60;2.40;;;;;;;8.93;100.00;-19399.69;5017228;28;20440;-67
2022/01/03 06:11:09;;;;;;;8.90;1.70;;;;;;;8.92;100.00;-19399.41;5017335;28;20037;-67
2022/01/03 06:13:34;;;;;;;13.77;1.83;;;;;;;8.91;100.00;-19399.16;5011227;28;20041;-67
2022/01/03 06:16:00;;;;;;;9.03;2.33;;;;;;;8.94;100.00;-19399.94;5014920;28;20017;-67
2022/01/03 06:18:25;;;;;;;19.03;3.30;;;;;;;8.98;100.00;-19401.00;5018992;28;20033;-67
2022/01/03 06:20:51;;;;;;;11.83;2.60;;;;;;;9.05;100.00;-19402.97;5019527;28;20028;-67
2022/01/03 06:23:19;;;;;;;14.67;3.00;;;;;;;9.11;100.00;-19404.44;5010027;28;20147;-67
2022/01/03 06:25:45;;;;;;;12.90;2.17;;;;;;;9.04;100.00;-19402.59;5006081;28;20560;-67
2022/01/03 06:28:10;;;;;;;8.50;1.87;;;;;;;9.16;100.00;-19405.75;5016329;28;20369;-67
2022/01/03 06:30:37;;;;;;;9.67;1.63;;;;;;;9.09;100.00;-19403.91;5014287;28;20034;-67
2022/01/03 06:33:05;;;;;;;10.93;2.03;;;;;;;9.12;100.00;-19404.69;5016113;28;20236;-67
2022/01/03 06:35:30;;;;;;;11.37;2.27;;;;;;;9.09;100.00;-19404.03;5013125;28;20029;-67
2022/01/03 06:37:56;;;;;;;7.17;1.30;;;;;;;9.10;100.00;-19404.16;5010425;28;20025;-67
2022/01/03 06:40:22;;;;;;;9.10;2.07;;;;;;;9.07;100.00;-19403.38;5016556;28;20108;-67
2022/01/03 06:42:47;;;;;;;8.77;2.17;;;;;;;9.19;100.00;-19406.53;5010967;28;20029;-67
2022/01/03 06:45:13;;;;;;;14.40;2.87;;;;;;;9.17;100.00;-19405.88;5019123;28;20032;-67
2022/01/03 06:47:39;;;;;;;10.70;1.53;;;;;;;9.10;100.00;-19404.16;5018678;28;20037;-67
2022/01/03 06:50:06;;;;;;;14.03;2.10;;;;;;;9.21;100.00;-19407.06;5018821;28;20087;-67
2022/01/03 06:52:32;;;;;;;11.23;2.10;;;;;;;9.24;100.00;-19407.84;5010833;28;20064;-67
2022/01/03 06:54:57;;;;;;;10.30;1.97;;;;;;;9.22;100.00;-19407.34;5018979;28;20049;-67
2022/01/03 06:57:23;;;;;;;12.77;2.37;;;;;;;9.21;100.00;-19407.06;5018640;28;20397;-67
2022/01/03 06:59:48;;;;;;;12.37;3.03;;;;;;;9.23;100.00;-19407.59;5019055;28;20075;-67
2022/01/03 07:02:14;;;;;;;12.97;2.83;;;;;;;9.29;100.00;-19409.19;5017952;28;20029;-67
2022/01/03 07:04:39;;;;;;;13.47;2.40;;;;;;;9.27;100.00;-19408.66;5018081;28;20207;-67
2022/01/03 07:07:05;;;;;;;14.00;2.63;;;;;;;9.39;100.00;-19411.81;5008539;28;20383;-67
2022/01/03 07:09:31;;;;;;;13.77;2.67;;;;;;;9.37;100.00;-19411.28;5018774;28;20470;-67
2022/01/03 07:11:56;;;;;;;11.93;1.80;;;;;;;9.27;100.00;-19408.66;5018365;28;20605;-67
2022/01/03 07:19:37;;;;;;;12.43;2.00;;;;;;;9.34;100.00;-19410.50;5018770;28;20289;-67
2022/01/03 07:22:04;;;;;;;9.47;1.87;;;;;;;9.37;100.00;-19411.28;5018648;28;20022;-67
2022/01/03 07:24:35;;;;;;;11.83;1.67;;;;;;;9.44;100.00;-19412.88;5018184;28;20025;-68
2022/01/03 07:27:06;;;;;;;10.90;1.97;;;;;;;9.45;100.00;-19413.25;5015088;28;20029;-67
2022/01/03 07:29:32;;;;;;;11.90;2.35;;;;;;;9.44;100.00;-19412.88;5018374;28;20578;-67
2022/01/03 07:31:57;;;;;;;8.77;2.20;;;;;;;9.41;100.00;-19412.22;5019097;28;20107;-67
2022/01/03 07:34:24;;;;;;;13.70;2.10;;;;;;;9.40;100.00;-19411.94;5018103;28;20029;-67
2022/01/03 07:36:50;;;;;;;10.37;2.13;;;;;;;9.41;100.00;-19412.22;5017802;28;20037;-67
2022/01/03 07:39:15;;;;;;;11.60;2.27;;;;;;;9.38;100.00;-19411.41;5015045;28;20315;-67
2022/01/03 07:41:41;;;;;;;15.63;2.23;;;;;;;9.38;100.00;-19411.53;5018369;28;20326;-67
2022/01/03 07:44:06;;;;;;;19.33;2.10;;;;;;;9.37;100.00;-19411.16;5017597;28;20083;-68
2022/01/03 07:46:31;;;;;;;12.40;1.70;;;;;;;9.36;100.00;-19410.88;5018362;28;20426;-67
2022/01/03 07:48:57;;;;;;;12.50;2.60;;;;;;;9.39;100.00;-19411.81;5018221;28;20181;-67
2022/01/03 07:51:22;;;;;;;10.63;2.27;;;;;;;9.40;100.00;-19411.94;5018343;28;20257;-68
2022/01/03 07:53:48;;;;;;;20.33;2.87;;;;;;;9.40;100.00;-19411.94;5017667;28;20021;-67
2022/01/03 07:56:13;;;;;;;16.23;2.40;;;;;;;9.39;100.00;-19411.81;5012230;28;20392;-68
2022/01/03 07:58:39;;;;;;;27.10;2.43;;;;;;;9.38;100.00;-19411.53;5018234;28;20328;-68
2022/01/03 08:01:05;;;;;;;9.37;2.27;;;;;;;9.31;100.00;-19409.56;5020946;28;20158;-67
2022/01/03 08:03:31;;;;;;;8.20;2.23;;;;;;;9.40;100.00;-19412.06;5020554;28;20095;-67
2022/01/03 08:05:56;;;;;;;8.93;2.37;;;;;;;9.29;100.00;-19409.19;5021899;28;20636;-68
2022/01/03 08:08:22;;;;;;;8.63;2.50;;;;;;;9.42;100.00;-19412.47;5021896;28;20531;-68
2022/01/03 08:10:48;;;;;;;13.40;2.40;;;;;;;9.46;100.00;-19413.53;5022116;28;20108;-67
2022/01/03 08:13:14;;;;;;;14.20;2.40;;;;;;;9.44;100.00;-19412.88;5018754;28;20031;-68
2022/01/03 08:15:40;;;;;;;15.43;2.30;;;;;;;9.37;100.00;-19411.28;5018898;28;20025;-67
2022/01/03 08:18:06;;;;;;;19.63;2.40;;;;;;;9.44;100.00;-19412.88;5021552;28;20481;-67
2022/01/03 08:20:31;;;;;;;17.87;2.60;;;;;;;9.42;100.00;-19412.34;5022015;28;20544;-67
2022/01/03 08:22:57;;;;;;;14.37;1.63;;;;;;;9.43;100.00;-19412.72;5021443;28;20025;-68
2022/01/03 08:25:22;;;;;;;15.40;3.40;;;;;;;9.45;100.00;-19413.13;5018893;28;20034;-67
2022/01/03 08:27:48;;;;;;;13.07;2.10;;;;;;;9.44;100.00;-19413.00;5021387;28;20022;-68
2022/01/03 08:30:13;;;;;;;17.00;2.30;;;;;;;9.48;100.00;-19413.91;5021661;28;20198;-67
2022/01/03 08:32:39;;;;;;;6.27;1.33;;;;;;;9.44;100.00;-19412.88;5021356;28;20186;-67
2022/01/03 08:35:06;;;;;;;9.03;2.23;;;;;;;9.45;100.00;-19413.13;5017982;28;20132;-67
2022/01/03 08:37:32;;;;;;;11.90;2.57;;;;;;;9.43;100.00;-19412.59;5021007;28;20331;-67
2022/01/03 08:40:03;;;;;;;14.73;2.83;;;;;;;9.37;100.00;-19411.28;5021394;28;20033;-68
2022/01/03 08:42:28;;;;;;;11.17;2.33;;;;;;;9.34;100.00;-19410.50;5021169;28;20029;-67
2022/01/03 08:44:54;;;;;;;10.93;1.83;;;;;;;9.42;100.00;-19412.34;5020387;28;20030;-67
2022/01/03 08:47:19;;;;;;;18.97;2.83;;;;;;;9.45;100.00;-19413.25;5020834;28;20273;-68
2022/01/03 08:49:45;;;;;;;9.07;2.03;;;;;;;9.47;100.00;-19413.78;5020345;28;20025;-67
2022/01/03 08:52:10;;;;;;;21.33;2.67;;;;;;;9.49;100.00;-19414.19;5020983;28;20033;-68
2022/01/03 08:54:36;;;;;;;14.47;2.33;;;;;;;9.46;100.00;-19413.41;5020198;28;20149;-68
2022/01/03 08:57:01;;;;;;;13.13;2.47;;;;;;;9.49;100.00;-19414.19;5019708;28;20124;-67
2022/01/03 08:59:26;;;;;;;11.37;1.70;;;;;;;9.42;100.00;-19412.34;5020704;28;20087;-68
2022/01/03 09:01:52;;;;;;;13.00;3.17;;;;;;;9.46;100.00;-19413.41;5021095;28;20025;-67
2022/01/03 09:04:17;;;;;;;15.20;2.23;;;;;;;9.39;100.00;-19411.81;5019559;28;20052;-68
2022/01/03 09:06:43;;;;;;;9.27;1.90;;;;;;;9.50;100.00;-19414.44;5020902;28;20029;-67
2022/01/03 09:09:08;;;;;;;12.33;2.23;;;;;;;9.56;100.00;-19416.03;5020486;28;20029;-67
2022/01/03 09:11:34;;;;;;;9.30;1.90;;;;;;;9.59;100.00;-19416.81;5018916;28;20167;-67
2022/01/03 09:13:59;;;;;;;13.33;2.20;;;;;;;9.58;100.00;-19416.56;5020034;28;20052;-68
2022/01/03 09:16:25;;;;;;;12.33;2.03;;;;;;;9.58;100.00;-19416.69;5020373;28;20030;-68
2022/01/03 09:18:50;;;;;;;9.13;2.70;;;;;;;9.73;100.00;-19420.38;5020273;28;20504;-68
2022/01/03 09:21:16;;;;;;;16.90;2.10;;;;;;;9.67;100.00;-19418.91;5020581;28;20064;-68
2022/01/03 09:23:46;;;;;;;9.77;1.77;;;;;;;9.71;100.00;-19419.97;5019974;28;20128;-68
2022/01/03 09:28:56;;;;;;;12.93;2.07;;;;;;;9.83;100.00;-19423.13;5013648;28;20176;-68
2022/01/03 09:31:26;;;;;;;11.53;2.27;;;;;;;9.85;100.00;-19423.66;5019399;28;20104;-68
2022/01/03 09:33:53;;;;;;;14.13;2.40;;;;;;;9.81;100.00;-19422.63;5013303;28;20026;-68
2022/01/03 09:36:19;;;;;;;21.00;2.53;;;;;;;9.77;100.00;-19421.56;5019886;28;20148;-68
2022/01/03 09:38:45;;;;;;;13.83;2.50;;;;;;;9.76;100.00;-19421.28;5019833;28;20029;-68
2022/01/03 09:41:12;;;;;;;12.60;2.07;;;;;;;9.79;100.00;-19422.09;5017211;28;20199;-68
2022/01/03 09:43:52;;;;;;;13.90;2.13;;;;;;;9.66;100.00;-19418.66;5019607;28;20040;-68
2022/01/03 09:46:23;;;;;;;14.33;2.30;;;;;;;9.60;100.00;-19417.22;5018574;28;20032;-68
2022/01/03 09:48:52;;;;;;;14.60;2.22;;;;;;;9.61;100.00;-19417.34;5020111;28;20044;-68
2022/01/03 09:51:29;;;;;;;10.40;2.23;;;;;;;9.61;100.00;-19417.34;5019535;28;20192;-68
2022/01/03 09:53:59;;;;;;;8.10;2.23;;;;;;;9.56;100.00;-19416.03;5031378;28;20041;-68
2022/01/03 09:56:26;;;;;;;10.10;1.87;;;;;;;9.54;100.00;-19415.63;5018961;28;20175;-68
2022/01/03 09:58:52;;;;;;;13.53;2.07;;;;;;;9.54;100.00;-19415.50;5019407;28;20021;-68
2022/01/03 10:01:18;;;;;;;11.33;2.10;;;;;;;9.66;100.00;-19418.66;5019726;28;20064;-68
2022/01/03 10:03:47;;;;;;;18.17;2.73;;;;;;;9.73;100.00;-19420.50;5015909;28;20041;-68
2022/01/03 10:06:18;;;;;;;15.77;2.83;;;;;;;9.71;100.00;-19419.84;5019162;28;20065;-68
2022/01/03 10:08:44;;;;;;;13.93;2.17;;;;;;;9.66;100.00;-19418.66;5019028;28;20048;-68
2022/01/03 10:11:10;;;;;;;7.27;1.73;;;;;;;9.70;100.00;-19419.72;5019383;28;20033;-68
2022/01/03 10:13:35;;;;;;;19.80;2.17;;;;;;;9.76;100.00;-19421.16;5018977;28;20456;-68
2022/01/03 10:16:01;;;;;;;12.83;2.60;;;;;;;9.80;100.00;-19422.34;5018751;28;20033;-68
2022/01/03 10:18:26;;;;;;;10.17;2.23;;;;;;;9.76;100.00;-19421.16;5018953;28;20060;-68
2022/01/03 10:20:52;;;;;;;11.67;2.67;;;;;;;9.76;100.00;-19421.16;5019336;28;20041;-68
2022/01/03 10:23:18;;;;;;;15.47;2.07;;;;;;;9.79;100.00;-19422.09;5015254;28;20044;-68
2022/01/03 10:25:46;;;;;;;10.50;2.10;;;;;;;9.80;100.00;-19422.34;5019060;28;20091;-68
2022/01/03 10:28:22;;;;;;;8.13;1.77;;;;;;;9.82;100.00;-19422.88;5018033;28;20490;-68
2022/01/03 10:30:48;;;;;;;9.37;2.20;;;;;;;9.88;100.00;-19424.47;5018839;28;20252;-68
2022/01/03 10:33:16;;;;;;;17.20;2.17;;;;;;;9.84;100.00;-19423.41;5018486;28;20108;-67
2022/01/03 10:35:59;;;;;;;10.67;2.37;;;;;;;9.87;100.00;-19424.19;5018931;28;20386;-67
2022/01/03 10:38:36;;;;;;;12.20;2.23;;;;;;;9.96;100.00;-19426.44;5018364;28;20166;-68
2022/01/03 10:41:14;;;;;;;11.07;2.17;;;;;;;9.88;100.00;-19424.47;5018789;28;20029;-68
2022/01/03 10:43:39;;;;;;;10.30;2.63;;;;;;;9.83;100.00;-19423.13;5018614;28;20038;-68
2022/01/03 10:46:17;;;;;;;7.50;1.80;;;;;;;9.81;100.00;-19422.47;5018683;28;20440;-67
2022/01/03 10:48:42;;;;;;;15.57;2.37;;;;;;;9.75;100.00;-19421.03;5010668;28;20274;-68
2022/01/03 10:51:08;;;;;;;12.67;2.40;;;;;;;9.72;100.00;-19420.25;5018654;28;20029;-68
2022/01/03 10:53:36;;;;;;;12.30;2.50;;;;;;;9.78;100.00;-19421.69;5018478;28;20025;-68
2022/01/03 10:56:28;;;;;;;11.23;2.17;;;;;;;9.72;100.00;-19420.25;5018353;28;20084;-68
2022/01/03 10:58:57;;;;;;;;;;;;;;;9.74;100.00;-19420.63;5012773;28;20033;-68
2022/01/03 11:01:26;;;;;;;13.37;2.40;;;;;;;9.63;100.00;-19417.88;5018564;28;20340;-68
2022/01/03 11:03:53;;;;;;;12.87;1.97;;;;;;;9.63;100.00;-19417.88;5018029;28;20123;-68
2022/01/03 11:11:48;;;;;;;6.70;2.43;;;;;;;9.88;100.00;-19424.47;5018666;28;20289;-68
2022/01/03 11:14:41;;;;;;;8.17;2.30;;;;;;;9.87;100.00;-19424.06;5018236;28;20325;-68
2022/01/03 11:17:22;;;;;;;14.07;1.97;;;;;;;-145.18;100.00;60484.78;5018574;28;20100;-68
2022/01/03 11:19:48;;;;;;;15.75;2.78;;;;;;;-145.18;100.00;60484.78;5018726;28;20033;-68
2022/01/03 11:22:39;;;;;;;10.40;2.00;;;;;;;10.38;100.00;-19437.28;5018464;28;20462;-67
2022/01/03 11:25:05;;;;;;;10.40;2.07;;;;;;;10.49;100.00;-19440.19;5018284;28;20059;-68
2022/01/03 11:27:36;;;;;;;12.00;2.07;;;;;;;10.06;100.00;-19428.94;5017925;28;20033;-68
2022/01/03 11:30:03;;;;;;;8.87;1.80;;;;;;;10.04;100.00;-19428.41;5015493;28;20128;-68
2022/01/03 11:32:29;;;;;;;9.67;2.30;;;;;;;10.13;100.00;-19430.91;5018650;28;20028;-68
2022/01/03 11:34:56;;;;;;;8.90;1.43;;;;;;;10.23;100.00;-19433.53;5019605;28;20057;-68
2022/01/03 11:37:23;;;;;;;13.80;2.70;;;;;;;10.08;100.00;-19429.47;5018781;28;20040;-68
2022/01/03 11:39:49;;;;;;;4.50;1.30;;;;;;;10.02;100.00;-19427.88;5021966;28;20478;-68